Time;durP1;ratioP1;P1;durP2;ratioP2;P2;SDS_P1;SDS_P2;PMS_P1;PMS_P2;Temp;Humidity;BMP_temperature;BMP_pressure;BME280_temperature;BME280_humidity;BME280_pressure;Samples;Min_cycle;Max_cycle;Signal;HPM_P1;HPM_P2
2023/03/28 00:00:16;;;;;;;2.90;2.70;;;;;;;4.01;100.00;97498.75;5053881;28;20203;-57
2023/03/28 00:02:43;;;;;;;3.67;2.67;;;;;;;4.08;100.00;97501.03;5054475;28;20203;-56
2023/03/28 00:05:10;;;;;;;3.13;2.83;;;;;;;4.12;100.00;97503.41;5052630;28;20268;-57
2023/03/28 00:07:38;;;;;;;3.77;2.80;;;;;;;4.11;100.00;97504.31;5053941;28;20199;-56
2023/03/28 00:10:05;;;;;;;4.17;2.70;;;;;;;4.12;100.00;97498.16;5054152;28;20355;-57
2023/03/28 00:12:32;;;;;;;3.43;3.13;;;;;;;4.17;100.00;97505.78;5054619;28;20226;-57
2023/03/28 00:14:59;;;;;;;4.33;2.80;;;;;;;4.17;100.00;97511.88;5054838;28;20203;-55
2023/03/28 00:17:27;;;;;;;4.37;3.03;;;;;;;4.17;100.00;97509.25;5054819;28;20207;-56
2023/03/28 00:19:55;;;;;;;2.67;2.47;;;;;;;4.20;100.00;97511.69;5054913;28;20214;-58
2023/03/28 00:22:21;;;;;;;2.80;2.70;;;;;;;4.24;100.00;97508.00;5055822;28;20211;-58
2023/03/28 00:24:50;;;;;;;4.20;2.60;;;;;;;4.33;100.00;97511.88;5058590;28;20207;-56
2023/03/28 00:27:17;;;;;;;3.93;2.50;;;;;;;4.34;100.00;97516.19;5059218;28;20200;-57
2023/03/28 00:29:44;;;;;;;2.83;2.57;;;;;;;4.28;100.00;97509.53;5060631;28;20199;-57
2023/03/28 00:32:10;;;;;;;3.60;2.80;;;;;;;4.26;100.00;97513.13;5063286;28;20223;-59
2023/03/28 00:34:39;;;;;;;2.70;2.30;;;;;;;4.27;100.00;97513.06;5060295;28;20222;-57
2023/03/28 00:37:06;;;;;;;2.77;2.57;;;;;;;4.23;100.00;97511.53;5054545;28;20199;-57
2023/03/28 00:39:33;;;;;;;2.97;2.40;;;;;;;4.27;100.00;97520.06;5055491;28;20541;-58
2023/03/28 00:42:02;;;;;;;2.80;2.50;;;;;;;4.24;100.00;97510.63;5056021;28;20194;-58
2023/03/28 00:44:47;;;;;;;3.57;2.73;;;;;;;4.23;100.00;97510.69;5055243;28;20283;-58
2023/03/28 00:47:32;;;;;;;3.30;2.80;;;;;;;4.15;100.00;97507.63;5052921;28;20235;-58
2023/03/28 00:50:04;;;;;;;3.00;2.70;;;;;;;4.20;100.00;97510.84;5052183;28;20640;-58
2023/03/28 00:52:34;;;;;;;2.70;2.50;;;;;;;4.16;100.00;97504.09;5052948;28;20215;-58
2023/03/28 00:55:03;;;;;;;3.17;2.90;;;;;;;4.07;100.00;97500.22;5053021;28;20278;-57
2023/03/28 00:57:30;;;;;;;2.87;2.60;;;;;;;4.13;100.00;97506.88;5052967;28;20226;-57
2023/03/28 00:59:56;;;;;;;3.83;2.50;;;;;;;4.09;100.00;97502.72;5052676;28;20639;-58
2023/03/28 01:02:23;;;;;;;2.60;2.40;;;;;;;4.04;100.00;97496.91;5052182;28;20563;-58
2023/03/28 01:04:56;;;;;;;2.57;2.37;;;;;;;4.04;100.00;97502.16;5052775;28;20546;-56
2023/03/28 01:07:32;;;;;;;2.70;2.50;;;;;;;3.98;100.00;97501.53;5052258;28;20203;-57
2023/03/28 01:09:59;;;;;;;3.17;2.87;;;;;;;3.98;100.00;97496.31;5052732;28;20297;-57
2023/03/28 01:12:25;;;;;;;2.77;2.57;;;;;;;3.98;100.00;97498.06;5051983;28;20671;-57
2023/03/28 01:14:52;;;;;;;3.10;2.80;;;;;;;4.01;100.00;97500.50;5051716;28;20490;-57
2023/03/28 01:17:18;;;;;;;2.77;2.57;;;;;;;4.06;100.00;97502.91;5051593;28;20662;-57
2023/03/28 01:19:57;;;;;;;2.97;2.73;;;;;;;4.03;100.00;97506.53;5052091;28;20298;-58
2023/03/28 01:22:54;;;;;;;3.10;2.60;;;;;;;4.01;100.00;97511.84;5052247;28;20245;-60
2023/03/28 01:25:43;;;;;;;4.03;2.60;;;;;;;4.06;100.00;97508.97;5052275;28;20241;-56
2023/03/28 01:28:21;;;;;;;3.40;2.90;;;;;;;4.04;100.00;97505.59;5052135;28;20210;-56
2023/03/28 01:31:20;;;;;;;2.80;2.53;;;;;;;4.03;100.00;97514.38;5052296;28;20308;-57
2023/03/28 01:34:43;;;;;;;2.73;2.43;;;;;;;3.92;100.00;97511.50;5051699;28;20207;-57
2023/03/28 01:37:25;;;;;;;2.80;2.30;;;;;;;3.99;100.00;97513.69;4978654;28;20209;-58
2023/03/28 01:40:04;;;;;;;2.87;2.47;;;;;;;3.93;100.00;97503.53;4979984;28;20204;-57
2023/03/28 01:42:35;;;;;;;3.60;2.23;;;;;;;3.90;100.00;97508.94;5027911;28;20195;-58
2023/03/28 01:45:09;;;;;;;3.40;2.60;;;;;;;3.95;100.00;97509.56;5057288;28;20269;-57
2023/03/28 01:47:39;;;;;;;2.80;2.60;;;;;;;3.89;100.00;97512.50;5056710;28;20663;-56
2023/03/28 01:50:09;;;;;;;3.60;2.47;;;;;;;3.82;100.00;97521.59;5051919;28;20299;-57
2023/03/28 01:52:42;;;;;;;5.00;2.80;;;;;;;3.81;100.00;97519.91;5051186;28;20219;-57
2023/03/28 01:55:12;;;;;;;3.47;2.70;;;;;;;3.76;100.00;97527.13;5051287;28;20195;-57
2023/03/28 01:57:41;;;;;;;2.50;2.30;;;;;;;3.74;100.00;97529.00;5051038;28;20214;-57
2023/03/28 02:00:11;;;;;;;2.40;2.20;;;;;;;3.68;100.00;97518.00;5051612;28;20241;-57
2023/03/28 02:02:41;;;;;;;2.60;2.40;;;;;;;3.66;100.00;97525.91;5051809;28;20223;-57
2023/03/28 02:05:12;;;;;;;4.40;2.63;;;;;;;3.68;100.00;97518.84;5051401;28;20231;-56
2023/03/28 02:07:41;;;;;;;4.20;2.63;;;;;;;3.67;100.00;97519.78;5050753;28;20659;-57
2023/03/28 02:10:08;;;;;;;3.63;2.20;;;;;;;3.67;100.00;97519.78;5051125;28;21350;-57
2023/03/28 02:12:38;;;;;;;3.67;2.50;;;;;;;3.62;100.00;97515.69;5051471;28;20222;-57
2023/03/28 02:15:06;;;;;;;3.83;2.77;;;;;;;3.57;100.00;97512.47;5051288;28;20635;-57
2023/03/28 02:17:37;;;;;;;3.60;2.93;;;;;;;3.54;100.00;97518.72;5051570;28;20203;-58
2023/03/28 02:20:07;;;;;;;2.70;2.50;;;;;;;3.45;100.00;97512.19;5050886;28;20207;-57
2023/03/28 02:22:36;;;;;;;2.37;2.23;;;;;;;3.48;100.00;97513.78;5049913;28;20242;-57
2023/03/28 02:25:04;;;;;;;3.57;2.50;;;;;;;3.47;100.00;97520.78;5051208;28;20559;-57
2023/03/28 02:27:32;;;;;;;2.57;2.47;;;;;;;3.45;100.00;97516.56;5050501;28;20644;-57
2023/03/28 02:29:59;;;;;;;4.23;3.00;;;;;;;3.29;100.00;97513.91;5053944;28;20287;-57
2023/03/28 02:32:27;;;;;;;2.77;2.57;;;;;;;3.24;100.00;97507.19;5055504;28;20237;-57
2023/03/28 02:34:54;;;;;;;3.13;2.70;;;;;;;3.21;100.00;97507.34;5060011;28;20222;-57
2023/03/28 02:37:29;;;;;;;2.60;2.40;;;;;;;3.14;100.00;97504.22;5055610;28;20539;-57
2023/03/28 02:40:07;;;;;;;2.93;2.60;;;;;;;3.14;100.00;97508.59;5055338;28;20273;-56
2023/03/28 02:42:50;;;;;;;2.77;2.57;;;;;;;3.10;100.00;97509.66;5054204;28;20217;-57
2023/03/28 02:45:34;;;;;;;2.80;2.53;;;;;;;2.97;100.00;97505.06;5054844;28;20249;-57
2023/03/28 02:48:08;;;;;;;3.53;2.87;;;;;;;2.97;100.00;97504.22;5054607;28;20233;-57
2023/03/28 02:50:41;;;;;;;3.03;2.73;;;;;;;2.95;100.00;97504.25;5054155;28;20213;-57
2023/03/28 02:53:12;;;;;;;3.13;2.70;;;;;;;2.94;100.00;97504.34;5054810;28;20280;-57
2023/03/28 02:55:47;;;;;;;5.03;3.00;;;;;;;2.89;100.00;97501.13;5052815;28;20654;-56
2023/03/28 02:58:15;;;;;;;3.20;2.97;;;;;;;2.85;100.00;97496.97;5054208;28;21032;-57
2023/03/28 03:00:44;;;;;;;2.70;2.50;;;;;;;2.83;100.00;97502.28;5054224;28;20393;-57
2023/03/28 03:03:12;;;;;;;3.73;3.43;;;;;;;2.83;100.00;97496.19;5054440;28;20223;-58
2023/03/28 03:05:40;;;;;;;2.90;2.70;;;;;;;2.90;100.00;97493.22;5053378;28;20214;-57
2023/03/28 03:08:07;;;;;;;2.93;2.70;;;;;;;2.85;100.00;97500.41;5054904;28;20569;-58
2023/03/28 03:10:33;;;;;;;2.97;2.57;;;;;;;2.82;100.00;97492.72;5053991;28;20570;-57
2023/03/28 03:13:01;;;;;;;2.80;2.60;;;;;;;2.78;100.00;97499.03;5054678;28;21075;-57
2023/03/28 03:15:29;;;;;;;2.60;2.40;;;;;;;2.77;100.00;97499.94;5054154;28;20202;-58
2023/03/28 03:17:56;;;;;;;3.57;2.63;;;;;;;2.80;100.00;97502.41;5054634;28;20272;-57
2023/03/28 03:20:24;;;;;;;2.80;2.60;;;;;;;2.75;100.00;97499.19;5053570;28;20207;-57
2023/03/28 03:22:51;;;;;;;4.30;2.70;;;;;;;2.75;100.00;97495.72;5054148;28;20199;-57
2023/03/28 03:25:18;;;;;;;3.30;3.00;;;;;;;2.66;100.00;97489.16;5054261;28;20218;-57
2023/03/28 03:27:45;;;;;;;3.03;2.80;;;;;;;2.65;100.00;97495.31;5052020;28;20679;-57
2023/03/28 03:30:13;;;;;;;3.57;2.70;;;;;;;2.66;100.00;97490.94;5053420;28;20214;-56
2023/03/28 03:32:40;;;;;;;2.80;2.60;;;;;;;2.69;100.00;97486.44;5053770;28;20218;-58
2023/03/28 03:35:07;;;;;;;2.97;2.73;;;;;;;2.67;100.00;97484.78;5053018;28;20206;-57
2023/03/28 03:37:33;;;;;;;3.20;3.00;;;;;;;2.64;100.00;97485.78;5052915;28;20194;-57
2023/03/28 03:39:59;;;;;;;3.40;3.10;;;;;;;2.62;100.00;97486.78;5053435;28;20289;-56
2023/03/28 03:42:27;;;;;;;5.43;2.97;;;;;;;2.62;100.00;97487.66;5053686;28;20210;-57
2023/03/28 03:44:54;;;;;;;3.20;2.80;;;;;;;2.54;100.00;97481.09;5053720;28;20244;-57
2023/03/28 03:47:22;;;;;;;3.63;2.80;;;;;;;2.56;100.00;97482.69;5053312;28;20273;-57
2023/03/28 03:49:48;;;;;;;3.10;2.90;;;;;;;2.60;100.00;97478.19;5052842;28;20205;-57
2023/03/28 03:52:15;;;;;;;3.10;2.90;;;;;;;2.50;100.00;97483.00;5053281;28;20211;-57
2023/03/28 03:54:41;;;;;;;2.70;2.50;;;;;;;2.48;100.00;97480.44;5052941;28;20248;-57
2023/03/28 03:57:08;;;;;;;3.00;2.80;;;;;;;2.39;100.00;97485.28;5053331;28;20260;-58
2023/03/28 03:59:35;;;;;;;3.13;2.83;;;;;;;2.44;100.00;97480.69;5053728;28;20221;-57
2023/03/28 04:02:01;;;;;;;3.10;2.90;;;;;;;2.41;100.00;97481.66;5052862;28;20213;-57
2023/03/28 04:04:35;;;;;;;3.40;3.10;;;;;;;2.37;100.00;97477.50;5052641;28;20288;-57
2023/03/28 04:07:02;;;;;;;4.17;2.83;;;;;;;2.30;100.00;97477.88;5052523;28;20656;-58
2023/03/28 04:09:28;;;;;;;3.47;2.63;;;;;;;2.24;100.00;97483.38;5053313;28;20209;-56
2023/03/28 04:11:55;;;;;;;3.17;2.87;;;;;;;2.18;100.00;97479.31;5053360;28;20210;-57
2023/03/28 04:14:21;;;;;;;4.03;3.57;;;;;;;2.24;100.00;97481.63;5060684;28;20229;-57
2023/03/28 04:16:49;;;;;;;3.80;3.50;;;;;;;2.16;100.00;97485.53;5063935;28;20212;-59
2023/03/28 04:19:16;;;;;;;3.47;3.17;;;;;;;2.18;100.00;97481.06;5063435;28;20263;-57
2023/03/28 04:21:47;;;;;;;3.60;3.30;;;;;;;2.12;100.00;97487.41;5056386;28;20197;-57
2023/03/28 04:24:14;;;;;;;4.93;3.23;;;;;;;2.08;100.00;97488.47;5053529;28;20268;-55
2023/03/28 04:26:40;;;;;;;3.87;3.23;;;;;;;2.12;100.00;97487.41;5051924;28;20719;-57
2023/03/28 04:29:08;;;;;;;3.30;3.00;;;;;;;1.95;100.00;97485.56;5052761;28;20635;-57
2023/03/28 04:31:38;;;;;;;3.47;3.17;;;;;;;1.96;100.00;97495.09;5052474;28;20202;-57
2023/03/28 04:34:05;;;;;;;3.53;3.20;;;;;;;1.98;100.00;97490.63;5053029;28;20275;-57
2023/03/28 04:36:32;;;;;;;3.60;3.30;;;;;;;1.88;100.00;97496.34;5052137;28;20213;-57
2023/03/28 04:39:01;;;;;;;3.13;2.87;;;;;;;1.85;100.00;97499.94;5052560;28;20515;-57
2023/03/28 04:41:27;;;;;;;3.30;3.00;;;;;;;1.81;100.00;97498.38;5052467;28;20560;-57
2023/03/28 04:43:54;;;;;;;3.40;3.13;;;;;;;1.81;100.00;97501.00;5052335;28;20199;-57
2023/03/28 04:46:21;;;;;;;3.87;3.33;;;;;;;1.78;100.00;97500.28;5051750;28;20194;-56
2023/03/28 04:48:49;;;;;;;3.90;3.60;;;;;;;1.76;100.00;97504.72;5052238;28;20599;-57
2023/03/28 04:51:16;;;;;;;3.63;3.33;;;;;;;1.71;100.00;97501.47;5051559;28;20296;-56
2023/03/28 04:53:43;;;;;;;3.83;3.53;;;;;;;1.68;100.00;97515.50;5051997;28;20236;-56
2023/03/28 04:56:12;;;;;;;3.53;3.17;;;;;;;1.75;100.00;97509.09;5051979;28;20213;-56
2023/03/28 04:58:39;;;;;;;3.57;3.27;;;;;;;1.81;100.00;97516.63;5052427;28;20232;-58
2023/03/28 05:01:09;;;;;;;4.03;3.37;;;;;;;1.89;100.00;97511.94;5052253;28;20550;-57
2023/03/28 05:03:36;;;;;;;3.73;3.43;;;;;;;1.89;100.00;97522.38;5052057;28;20202;-57
2023/03/28 05:06:03;;;;;;;4.93;3.23;;;;;;;1.87;100.00;97513.78;5052425;28;20637;-57
2023/03/28 05:08:34;;;;;;;3.37;3.03;;;;;;;1.84;100.00;97519.09;5070658;28;20209;-58
2023/03/28 05:11:01;;;;;;;3.60;3.30;;;;;;;1.82;100.00;97523.56;5074361;28;20273;-58
2023/03/28 05:13:30;;;;;;;3.53;3.20;;;;;;;1.83;100.00;97525.25;5075073;28;20226;-57
2023/03/28 05:15:57;;;;;;;3.47;3.17;;;;;;;1.90;100.00;97531.91;5074025;28;20191;-57
2023/03/28 05:18:23;;;;;;;6.13;3.60;;;;;;;1.92;100.00;97527.44;5064722;28;20200;-57
2023/03/28 05:20:50;;;;;;;5.23;3.30;;;;;;;1.89;100.00;97530.19;5051732;28;20205;-58
2023/03/28 05:23:17;;;;;;;5.43;3.90;;;;;;;1.85;100.00;97536.44;5051973;28;20210;-57
2023/03/28 05:25:43;;;;;;;6.40;3.80;;;;;;;1.82;100.00;97541.81;5052106;28;20222;-57
2023/03/28 05:28:10;;;;;;;4.53;3.60;;;;;;;1.87;100.00;97539.84;5052057;28;20210;-57
2023/03/28 05:30:39;;;;;;;3.20;3.00;;;;;;;1.88;100.00;97551.13;5050117;28;20625;-56
2023/03/28 05:33:05;;;;;;;3.37;3.03;;;;;;;1.87;100.00;97545.06;5051133;28;20217;-56
2023/03/28 05:35:36;;;;;;;3.67;3.37;;;;;;;1.90;100.00;97552.75;5051252;28;20202;-57
2023/03/28 05:38:02;;;;;;;5.30;3.47;;;;;;;1.98;100.00;97552.41;5051534;28;20320;-57
2023/03/28 05:40:29;;;;;;;3.43;3.23;;;;;;;1.96;100.00;97555.09;5051776;28;20214;-57
2023/03/28 05:42:56;;;;;;;4.47;3.60;;;;;;;1.95;100.00;97557.75;5052056;28;20571;-56
2023/03/28 05:45:23;;;;;;;4.93;3.70;;;;;;;1.97;100.00;97563.75;5051228;28;20208;-57
2023/03/28 05:47:53;;;;;;;3.80;3.43;;;;;;;2.03;100.00;97567.84;5048850;28;20240;-57
2023/03/28 05:50:20;;;;;;;6.00;3.70;;;;;;;1.97;100.00;97571.59;5051064;28;20201;-57
2023/03/28 05:52:46;;;;;;;5.17;3.30;;;;;;;1.99;100.00;97575.81;5051052;28;20212;-56
2023/03/28 05:55:12;;;;;;;5.27;3.87;;;;;;;2.07;100.00;97579.84;5051847;28;20225;-57
2023/03/28 05:57:39;;;;;;;3.87;3.20;;;;;;;2.15;100.00;97582.97;5051401;28;20292;-57
2023/03/28 06:00:13;;;;;;;4.63;3.60;;;;;;;2.28;100.00;97576.25;5051823;28;20205;-57
2023/03/28 06:02:41;;;;;;;4.70;4.13;;;;;;;2.77;100.00;97583.50;5051839;28;20270;-57
2023/03/28 06:05:10;;;;;;;4.27;3.87;;;;;;;3.64;100.00;97585.31;5050758;28;20566;-57
2023/03/28 06:07:37;;;;;;;4.10;3.70;;;;;;;4.42;100.00;97582.09;5050847;28;20654;-57
2023/03/28 06:10:05;;;;;;;4.23;3.83;;;;;;;5.55;98.00;97580.03;5051239;28;20227;-57
2023/03/28 06:12:32;;;;;;;4.07;3.33;;;;;;;5.91;92.34;97583.16;5051585;28;20214;-57
2023/03/28 06:15:00;;;;;;;3.20;3.00;;;;;;;5.89;90.76;97585.00;5051342;28;20219;-58
2023/03/28 06:17:26;;;;;;;3.13;2.80;;;;;;;5.80;91.12;97587.31;5051323;28;20207;-57
2023/03/28 06:19:53;;;;;;;3.10;2.90;;;;;;;5.90;90.64;97585.88;5051663;28;20207;-57
2023/03/28 06:22:20;;;;;;;3.00;2.73;;;;;;;5.83;92.06;97584.50;5050529;28;20210;-58
2023/03/28 06:24:47;;;;;;;5.33;3.50;;;;;;;5.89;90.03;97590.25;5050141;28;20218;-57
2023/03/28 06:27:13;;;;;;;5.87;3.47;;;;;;;6.26;88.80;97593.31;5050913;28;20223;-57
2023/03/28 06:29:43;;;;;;;4.50;3.50;;;;;;;6.59;84.97;97587.78;5049960;28;20191;-57
2023/03/28 06:32:11;;;;;;;4.17;3.73;;;;;;;7.12;83.28;97592.25;5051494;28;20208;-57
2023/03/28 06:34:40;;;;;;;3.77;3.47;;;;;;;6.81;85.31;97586.31;5050620;28;20231;-57
2023/03/28 06:37:07;;;;;;;19.83;6.80;;;;;;;7.25;83.44;97588.72;5051161;28;20207;-56
2023/03/28 06:39:36;;;;;;;4.23;3.83;;;;;;;6.89;86.28;97581.41;5050770;28;20203;-57
2023/03/28 06:42:02;;;;;;;4.93;3.80;;;;;;;6.95;87.66;97583.66;5051212;28;20199;-57
2023/03/28 06:44:30;;;;;;;5.20;3.70;;;;;;;7.71;83.04;97589.19;5050867;28;20230;-57
2023/03/28 06:46:56;;;;;;;3.70;3.37;;;;;;;8.73;79.28;97582.13;5050649;28;20235;-57
2023/03/28 06:49:23;;;;;;;5.10;4.10;;;;;;;9.07;76.45;97585.84;5050041;28;20211;-57
2023/03/28 06:51:51;;;;;;;4.83;3.40;;;;;;;9.95;71.91;97588.88;5051845;28;20211;-57
2023/03/28 06:54:18;;;;;;;4.00;3.70;;;;;;;10.67;66.80;97576.25;5051340;28;20780;-59
2023/03/28 06:56:47;;;;;;;3.80;3.27;;;;;;;10.70;66.27;97572.53;5052608;28;20210;-58
2023/03/28 06:59:14;;;;;;;4.60;4.20;;;;;;;10.55;66.74;97579.03;5052481;28;20203;-56
2023/03/28 07:01:41;;;;;;;4.10;3.90;;;;;;;10.84;65.31;97580.22;5051887;28;20930;-56
2023/03/28 07:04:08;;;;;;;4.13;3.73;;;;;;;10.96;65.37;97588.03;5050706;28;20200;-57
2023/03/28 07:06:34;;;;;;;3.83;3.53;;;;;;;11.32;64.06;97584.22;5049885;28;20210;-57
2023/03/28 07:09:01;;;;;;;4.50;4.10;;;;;;;11.14;65.75;97582.22;5051291;28;20234;-58
2023/03/28 07:11:27;;;;;;;4.63;4.03;;;;;;;11.13;66.02;97581.38;5050368;28;20218;-57
2023/03/28 07:13:55;;;;;;;3.97;3.67;;;;;;;11.11;64.25;97587.75;5050228;28;20219;-57
2023/03/28 07:16:22;;;;;;;4.57;4.17;;;;;;;10.47;66.01;97591.06;5053928;28;20215;-56
2023/03/28 07:18:48;;;;;;;4.07;3.70;;;;;;;9.96;68.30;97584.44;5054175;28;20222;-57
2023/03/28 07:21:16;;;;;;;4.07;3.80;;;;;;;9.53;70.15;97602.63;5053767;28;20199;-57
2023/03/28 07:23:44;;;;;;;4.40;4.00;;;;;;;9.36;72.36;97590.69;5052541;28;20273;-57
2023/03/28 07:26:16;;;;;;;4.20;3.93;;;;;;;9.09;74.22;97597.97;5054123;28;20281;-56
2023/03/28 07:28:42;;;;;;;4.20;3.90;;;;;;;8.32;76.65;97600.88;5054271;28;20211;-57
2023/03/28 07:31:12;;;;;;;4.27;3.87;;;;;;;8.53;77.74;97593.25;5054257;28;20199;-57
2023/03/28 07:33:38;;;;;;;4.37;3.97;;;;;;;8.46;76.29;97592.84;5054257;28;20821;-57
2023/03/28 07:36:13;;;;;;;4.30;3.80;;;;;;;8.16;77.08;97584.38;5053856;28;20601;-58
2023/03/28 07:38:39;;;;;;;4.57;4.17;;;;;;;7.83;79.59;97593.59;5054056;28;20213;-56
2023/03/28 07:41:07;;;;;;;4.47;4.07;;;;;;;7.70;78.71;97594.53;5053873;28;20205;-57
2023/03/28 07:43:34;;;;;;;3.97;3.67;;;;;;;7.42;78.45;97591.09;5054008;28;20666;-58
2023/03/28 07:46:01;;;;;;;5.63;3.90;;;;;;;7.19;78.29;97589.09;5053714;28;20214;-57
2023/03/28 07:48:30;;;;;;;4.30;3.83;;;;;;;7.37;82.82;97589.69;5053389;28;20235;-56
2023/03/28 07:51:00;;;;;;;3.93;3.63;;;;;;;7.56;79.62;97590.19;5053134;28;20206;-57
2023/03/28 07:53:28;;;;;;;4.00;3.57;;;;;;;7.50;76.06;97598.50;5054123;28;20191;-57
2023/03/28 07:55:55;;;;;;;3.70;3.30;;;;;;;7.46;79.03;97597.00;5053790;28;20555;-57
2023/03/28 07:58:21;;;;;;;3.67;3.27;;;;;;;7.61;77.78;97601.28;5054093;28;20261;-56
2023/03/28 08:00:48;;;;;;;3.20;3.00;;;;;;;7.72;77.08;97598.75;5054417;28;20211;-57
2023/03/28 08:03:15;;;;;;;5.00;3.40;;;;;;;7.67;77.53;97595.59;5054180;28;20191;-57
2023/03/28 08:05:50;;;;;;;2.90;2.40;;;;;;;7.82;70.47;97591.94;5053680;28;20203;-57
2023/03/28 08:08:17;;;;;;;2.93;2.73;;;;;;;7.70;68.36;97584.84;5053165;28;20225;-57
2023/03/28 08:10:45;;;;;;;2.50;2.30;;;;;;;7.49;68.49;97583.66;5054579;28;20211;-57
2023/03/28 08:13:11;;;;;;;3.00;2.70;;;;;;;7.28;68.73;97578.00;5056097;28;20235;-57
2023/03/28 08:15:37;;;;;;;4.00;2.23;;;;;;;7.21;67.17;97581.13;5058083;28;20234;-57
2023/03/28 08:18:04;;;;;;;2.93;2.60;;;;;;;7.41;71.02;97581.50;5056091;28;20206;-57
2023/03/28 08:20:33;;;;;;;2.30;2.10;;;;;;;7.31;67.11;97584.84;5054325;28;20726;-57
2023/03/28 08:23:01;;;;;;;3.23;2.43;;;;;;;7.43;67.09;97584.06;5056416;28;20195;-58
2023/03/28 08:25:28;;;;;;;3.33;2.07;;;;;;;7.49;66.89;97583.66;5055627;28;20338;-63
2023/03/28 08:27:55;;;;;;;3.57;2.50;;;;;;;7.57;67.81;97591.88;5071162;28;20206;-57
2023/03/28 08:30:21;;;;;;;3.33;2.50;;;;;;;7.48;65.67;97592.47;5061246;28;20199;-57
2023/03/28 08:32:48;;;;;;;2.80;2.50;;;;;;;7.69;67.34;97601.59;5052526;28;20203;-57
2023/03/28 08:35:16;;;;;;;3.37;2.30;;;;;;;7.81;65.69;97600.78;5052923;28;20278;-58
2023/03/28 08:37:43;;;;;;;2.83;2.30;;;;;;;7.78;67.84;97601.00;5053235;28;20199;-57
2023/03/28 08:40:15;;;;;;;2.63;2.43;;;;;;;8.03;67.36;97592.28;5053598;28;20248;-57
2023/03/28 08:43:03;;;;;;;2.90;2.70;;;;;;;7.86;63.89;97598.69;5052810;28;20616;-58
2023/03/28 08:45:49;;;;;;;4.30;2.70;;;;;;;7.98;66.25;97604.91;5052690;28;20188;-57
2023/03/28 08:48:19;;;;;;;3.50;3.10;;;;;;;8.01;63.92;97599.44;5052437;28;20253;-57
2023/03/28 08:50:48;;;;;;;3.77;2.97;;;;;;;8.35;63.84;97600.66;5052338;28;20260;-57
2023/03/28 08:53:19;;;;;;;4.37;3.40;;;;;;;8.76;63.98;97595.94;5052871;28;20211;-57
2023/03/28 08:55:49;;;;;;;3.30;3.00;;;;;;;9.29;63.78;97596.53;5052324;28;20682;-57
2023/03/28 08:58:20;;;;;;;4.73;3.10;;;;;;;9.66;64.56;97603.44;5053103;28;20191;-57
2023/03/28 09:00:47;;;;;;;5.00;3.10;;;;;;;10.36;64.70;97595.47;5052157;28;20215;-57
2023/03/28 09:03:18;;;;;;;2.60;2.50;;;;;;;10.20;58.28;97593.16;5052836;28;20452;-58
2023/03/28 09:05:50;;;;;;;4.03;2.73;;;;;;;9.61;58.77;97602.06;5051317;28;20575;-57
2023/03/28 09:08:27;;;;;;;3.50;2.77;;;;;;;9.40;57.75;97601.88;5052255;28;20214;-57
2023/03/28 09:11:03;;;;;;;4.23;2.80;;;;;;;9.80;58.41;97597.13;5052761;28;20198;-57
2023/03/28 09:13:39;;;;;;;3.07;2.67;;;;;;;9.66;58.79;97592.88;5052755;28;20519;-57
2023/03/28 09:16:26;;;;;;;2.47;2.27;;;;;;;9.12;56.45;97587.19;5051944;28;20207;-58
2023/03/28 09:19:14;;;;;;;2.97;2.70;;;;;;;8.79;60.24;97597.50;5052029;28;20195;-57
2023/03/28 09:21:49;;;;;;;3.37;3.00;;;;;;;8.74;60.11;97600.50;5051202;28;20209;-57
2023/03/28 09:24:32;;;;;;;2.70;2.50;;;;;;;8.60;58.15;97597.16;5052259;28;20206;-57
2023/03/28 09:27:05;;;;;;;3.97;2.90;;;;;;;9.63;57.80;97603.66;5056192;28;20214;-58
2023/03/28 09:29:34;;;;;;;7.83;2.63;;;;;;;10.24;54.90;97604.34;5063683;28;20283;-58
2023/03/28 09:32:05;;;;;;;4.30;2.80;;;;;;;10.20;54.07;97602.91;5061671;28;20527;-57
2023/03/28 09:34:39;;;;;;;2.57;2.33;;;;;;;10.64;54.53;97597.66;5059348;28;20195;-56
2023/03/28 09:37:27;;;;;;;3.90;2.93;;;;;;;11.38;55.80;97594.31;5052179;28;20509;-57
2023/03/28 09:39:55;;;;;;;3.10;2.70;;;;;;;12.31;52.95;97594.50;5051529;28;20225;-57
2023/03/28 09:42:30;;;;;;;3.80;2.60;;;;;;;13.09;53.66;97583.25;5052467;28;20222;-57
2023/03/28 09:45:03;;;;;;;3.00;2.70;;;;;;;12.91;49.80;97583.91;5050511;28;20620;-57
2023/03/28 09:47:30;;;;;;;3.13;2.50;;;;;;;12.35;50.44;97580.03;5054669;28;20251;-57
2023/03/28 09:49:59;;;;;;;3.17;2.30;;;;;;;12.05;50.17;97585.25;5056487;28;20268;-57
2023/03/28 09:52:25;;;;;;;3.23;2.63;;;;;;;11.96;50.88;97582.44;5055110;28;20545;-57
2023/03/28 09:54:52;;;;;;;4.10;2.70;;;;;;;12.68;50.05;97582.41;5050729;28;20375;-57
2023/03/28 09:57:19;;;;;;;2.97;2.70;;;;;;;13.48;46.84;97576.25;5051675;28;20542;-56
2023/03/28 09:59:49;;;;;;;2.73;2.53;;;;;;;13.10;45.15;97569.88;5051597;28;20254;-57
2023/03/28 10:02:27;;;;;;;3.77;2.57;;;;;;;13.57;48.45;97575.41;5051421;28;20678;-57
2023/03/28 10:04:57;;;;;;;3.03;2.43;;;;;;;14.41;45.47;97572.00;5051499;28;20294;-57
2023/03/28 10:07:30;;;;;;;3.53;2.50;;;;;;;14.17;43.60;97575.09;5051326;28;20222;-56
2023/03/28 10:09:59;;;;;;;2.40;2.20;;;;;;;14.58;44.12;97565.09;5051379;28;20291;-57
2023/03/28 10:12:34;;;;;;;2.37;2.20;;;;;;;14.28;44.24;97568.75;5051687;28;20211;-58
2023/03/28 10:15:03;;;;;;;2.50;2.30;;;;;;;13.83;43.23;97571.22;5051087;28;20728;-57
2023/03/28 10:17:33;;;;;;;2.97;2.40;;;;;;;13.78;42.81;97563.66;5051897;28;20195;-57
2023/03/28 10:20:02;;;;;;;3.97;2.40;;;;;;;14.79;40.60;97561.22;5051373;28;20250;-57
2023/03/28 10:22:32;;;;;;;3.77;2.50;;;;;;;14.81;41.54;97569.88;5051237;28;20195;-57
2023/03/28 10:24:59;;;;;;;3.70;2.73;;;;;;;14.52;40.08;97558.53;5050734;28;20207;-57
2023/03/28 10:27:30;;;;;;;2.40;2.20;;;;;;;14.14;40.46;97562.06;5052589;28;20757;-57
2023/03/28 10:29:59;;;;;;;2.67;2.45;;;;;;;14.80;42.04;97557.59;5051265;28;20195;-56
2023/03/28 10:32:29;;;;;;;2.50;2.30;;;;;;;15.01;42.14;97549.34;5050189;28;20206;-56
2023/03/28 10:35:01;;;;;;;2.28;2.05;;;;;;;14.63;40.00;97550.34;5049781;28;20469;-56
2023/03/28 10:37:30;;;;;;;2.90;2.20;;;;;;;15.16;39.68;97547.84;5049360;28;20206;-56
2023/03/28 10:40:03;;;;;;;2.80;1.90;;;;;;;14.63;39.05;97544.22;5049750;28;20269;-56
2023/03/28 10:42:41;;;;;;;2.17;2.08;;;;;;;14.18;39.15;97549.34;5050514;28;20195;-56
2023/03/28 10:45:19;;;;;;;3.13;2.08;;;;;;;14.08;40.70;97536.06;5049939;28;20273;-55
2023/03/28 10:47:48;;;;;;;3.22;2.63;;;;;;;14.56;38.28;97527.94;5050152;28;20246;-57
2023/03/28 10:50:21;;;;;;;2.35;2.15;;;;;;;14.41;38.93;97524.94;5052140;28;20207;-56
2023/03/28 10:52:52;;;;;;;2.70;2.50;;;;;;;14.69;40.81;97524.97;5054986;28;20195;-56
2023/03/28 10:55:22;;;;;;;2.67;2.40;;;;;;;14.29;43.84;97520.75;5055002;28;20288;-57
2023/03/28 10:57:52;;;;;;;2.17;2.00;;;;;;;14.32;39.59;97522.25;5054767;28;20206;-56
2023/03/28 11:00:23;;;;;;;4.30;2.45;;;;;;;13.95;41.54;97517.75;5055231;28;20352;-56
2023/03/28 11:03:12;;;;;;;2.90;2.58;;;;;;;13.60;39.46;97527.31;5054911;28;20195;-57
2023/03/28 11:05:46;;;;;;;2.50;2.00;;;;;;;14.10;39.11;97519.97;5071722;28;20201;-56
2023/03/28 11:08:30;;;;;;;2.73;2.53;;;;;;;13.36;41.40;97520.56;5076547;28;20333;-56
2023/03/28 11:11:03;;;;;;;5.00;2.33;;;;;;;13.52;43.04;97514.72;5072433;28;20203;-57
2023/03/28 11:13:35;;;;;;;2.53;2.33;;;;;;;13.57;42.36;97512.44;5075031;28;20202;-57
2023/03/28 11:16:09;;;;;;;2.53;2.33;;;;;;;13.83;41.55;97502.94;5057132;28;20538;-56
2023/03/28 11:18:52;;;;;;;3.00;2.10;;;;;;;14.50;38.68;97507.25;5054733;28;20207;-56
2023/03/28 11:21:24;;;;;;;2.17;1.97;;;;;;;14.65;41.15;97507.63;5053943;28;20206;-57
2023/03/28 11:23:57;;;;;;;3.30;2.50;;;;;;;14.22;38.43;97513.47;5054883;28;20207;-57
2023/03/28 11:26:28;;;;;;;2.63;2.40;;;;;;;14.40;38.58;97509.97;5054614;28;20187;-57
2023/03/28 11:29:07;;;;;;;2.20;2.10;;;;;;;13.84;39.47;97493.97;5054740;28;20211;-57
2023/03/28 11:31:37;;;;;;;3.40;2.37;;;;;;;13.59;40.04;97499.03;5054391;28;20257;-57
2023/03/28 11:34:13;;;;;;;2.30;2.10;;;;;;;13.72;41.05;97487.13;5054542;28;20222;-57
2023/03/28 11:36:43;;;;;;;2.83;2.37;;;;;;;14.00;38.80;97490.72;5053370;28;20536;-57
2023/03/28 11:39:13;;;;;;;4.50;2.47;;;;;;;13.30;40.08;97491.06;5053069;28;20195;-55
2023/03/28 11:41:41;;;;;;;3.07;2.77;;;;;;;13.39;40.26;97492.91;5054398;28;20215;-56
2023/03/28 11:44:13;;;;;;;2.93;2.33;;;;;;;13.71;39.69;97493.41;5053972;28;20218;-56
2023/03/28 11:46:43;;;;;;;2.77;2.40;;;;;;;13.69;39.50;97494.53;5054480;28;20199;-56
2023/03/28 11:49:17;;;;;;;2.50;2.30;;;;;;;14.28;36.71;97488.94;5054044;28;20239;-56